Cape Peony — 3FDX6 — position and weather

sailwx.info

Track history (hours):
 
Tides and Currents Weather Stations Pressure Air Temp Water Temp Dewpoint Dewpoint Depression Visibility Wind Speed Wind Dir Waves Ship Positions

Cape Peony

Last reported at 2016-Sep-26 20:31 UTC. Time now 2016-Sep-26 20:47 UTC.
Position N 51°56' E 004°03'.

Length 292 m; draft 18 m.

Type: Cargo ship. MMSI: 373590000.

Date/timePositionNaut miles runAvg speedWind from/ knotsBaromVisibWave heightAir tempDewpointWater temp
2016-Sep-26 20:31N 51°56' E 004°03'0 0.0
2016-Sep-26 19:31N 51°56' E 004°03'0 0.0
2016-Sep-26 15:31N 51°56' E 004°03'0 0.0
2016-Sep-26 13:32N 51°56' E 004°03'0 0.0
2016-Sep-26 11:31N 51°56' E 004°03'0 0.0
2016-Sep-26 08:31N 51°56' E 004°03'0 0.0
2016-Sep-26 02:31N 51°56' E 004°03'0 0.0
2016-Sep-26 01:32N 51°56' E 004°03'0 0.0
2016-Sep-26 00:31N 51°56' E 004°03'0 0.0
2016-Sep-25 21:32N 51°56' E 004°03'0 0.0
2016-Sep-25 17:31N 51°56' E 004°03'0 0.0
2016-Sep-25 16:32N 51°56' E 004°03'0 0.0
2016-Sep-25 15:32N 51°56' E 004°03'0 0.0
2016-Sep-25 14:32N 51°56' E 004°03'0 0.0
2016-Sep-25 12:32N 51°56' E 004°03'0 0.0
2016-Sep-25 11:31N 51°56' E 004°03'0 0.0
2016-Sep-25 10:31N 51°56' E 004°03'0 0.0
2016-Sep-25 09:32N 51°56' E 004°03'2 0.9
2016-Sep-25 07:33N 51°58' E 004°05'27 9.1
2016-Sep-25 04:33N 51°59' E 003°21'19 4.7
2016-Sep-25 00:34N 51°57' E 002°51'5 2.3
2016-Sep-24 22:33N 51°54' E 002°45'7 7.3
2016-Sep-24 21:34N 51°48' E 002°38'2311.5
2016-Sep-24 19:33N 51°30' E 002°14'1211.7
2016-Sep-24 18:33N 51°21' E 002°01'1212.1
2016-Sep-24 17:33N 51°13' E 001°48'1212.3
2016-Sep-24 16:33N 51°03' E 001°37'2311.3
2016-Sep-24 14:33N 50°42' E 001°21'4110.2
2016-Sep-24 10:33N 50°24' E 000°24'10 9.6
2016-Sep-24 09:33N 50°21' E 000°10'58 9.6
2016-Sep-24 03:33N 50°06' W 001°18'1212.1
2016-Sep-24 02:33N 50°03' W 001°36'1312.9
2016-Sep-24 01:34N 49°59' W 001°55'1413.0
2016-Sep-24 00:29N 49°56' W 002°16'5411.0
2016-Sep-23 19:33N 49°34' W 003°33'2310.0
2016-Sep-23 17:15N 49°22' W 004°04'36 9.5
2016-Sep-23 13:27N 49°04' W 004°51'4010.2
2016-Sep-23 09:33N 48°41' W 005°41'  
2016-Sep-19 19:32N 35°53' W 013°12'10 9.7
2016-Sep-19 18:33N 35°44' W 013°16'20 9.8
2016-Sep-19 16:33N 35°25' W 013°22'2211.1
2016-Sep-19 14:33N 35°04' W 013°30'1510.2
2016-Sep-19 13:03N 34°49' W 013°35'510.2
2016-Sep-19 12:33N 34°44' W 013°36'30 9.8
2016-Sep-19 09:31N 34°16' W 013°46'19 9.8
2016-Sep-19 07:34N 33°57' W 013°53'4310.3
2016-Sep-19 03:23N 33°16' W 014°07'25310.0
2016-Sep-18 02:03N 29°12' W 015°29'7 9.3
2016-Sep-18 01:16N 29°05' W 015°31'7 9.1
2016-Sep-18 00:30N 28°58' W 015°33'17 8.9
2016-Sep-17 22:33N 28°44' W 015°44'9 9.3
2016-Sep-17 21:33N 28°38' W 015°52'9 9.2
2016-Sep-17 20:33N 28°32' W 015°60'10 8.1
2016-Sep-17 19:16N 28°29' W 016°11'12 2.2
2016-Sep-17 13:33N 28°22' W 015°60'38 8.6
2016-Sep-17 09:09N 27°47' W 016°17'  
Track history (hours):
 
Tides and Currents Weather Stations Pressure Air Temp Water Temp Dewpoint Dewpoint Depression Visibility Wind Speed Wind Dir Waves Ship Positions

Cape Peony

Last reported at 2016-Sep-26 20:31 UTC. Time now 2016-Sep-26 20:47 UTC.
Position N 51°56' E 004°03'.

Length 292 m; draft 18 m.

Type: Cargo ship. MMSI: 373590000.

Date/timePositionNaut miles runAvg speedWind from/ knotsBaromVisibWave heightAir tempDewpointWater temp
2016-Sep-26 20:31N 51°56' E 004°03'0 0.0
2016-Sep-26 19:31N 51°56' E 004°03'0 0.0
2016-Sep-26 15:31N 51°56' E 004°03'0 0.0
2016-Sep-26 13:32N 51°56' E 004°03'0 0.0
2016-Sep-26 11:31N 51°56' E 004°03'0 0.0
2016-Sep-26 08:31N 51°56' E 004°03'0 0.0
2016-Sep-26 02:31N 51°56' E 004°03'0 0.0
2016-Sep-26 01:32N 51°56' E 004°03'0 0.0
2016-Sep-26 00:31N 51°56' E 004°03'0 0.0
2016-Sep-25 21:32N 51°56' E 004°03'0 0.0
2016-Sep-25 17:31N 51°56' E 004°03'0 0.0
2016-Sep-25 16:32N 51°56' E 004°03'0 0.0
2016-Sep-25 15:32N 51°56' E 004°03'0 0.0
2016-Sep-25 14:32N 51°56' E 004°03'0 0.0
2016-Sep-25 12:32N 51°56' E 004°03'0 0.0
2016-Sep-25 11:31N 51°56' E 004°03'0 0.0
2016-Sep-25 10:31N 51°56' E 004°03'0 0.0
2016-Sep-25 09:32N 51°56' E 004°03'2 0.9
2016-Sep-25 07:33N 51°58' E 004°05'27 9.1
2016-Sep-25 04:33N 51°59' E 003°21'19 4.7
2016-Sep-25 00:34N 51°57' E 002°51'5 2.3
2016-Sep-24 22:33N 51°54' E 002°45'7 7.3
2016-Sep-24 21:34N 51°48' E 002°38'2311.5
2016-Sep-24 19:33N 51°30' E 002°14'1211.7
2016-Sep-24 18:33N 51°21' E 002°01'1212.1
2016-Sep-24 17:33N 51°13' E 001°48'1212.3
2016-Sep-24 16:33N 51°03' E 001°37'2311.3
2016-Sep-24 14:33N 50°42' E 001°21'4110.2
2016-Sep-24 10:33N 50°24' E 000°24'10 9.6
2016-Sep-24 09:33N 50°21' E 000°10'58 9.6
2016-Sep-24 03:33N 50°06' W 001°18'1212.1
2016-Sep-24 02:33N 50°03' W 001°36'1312.9
2016-Sep-24 01:34N 49°59' W 001°55'1413.0
2016-Sep-24 00:29N 49°56' W 002°16'5411.0
2016-Sep-23 19:33N 49°34' W 003°33'2310.0
2016-Sep-23 17:15N 49°22' W 004°04'36 9.5
2016-Sep-23 13:27N 49°04' W 004°51'4010.2
2016-Sep-23 09:33N 48°41' W 005°41'  
2016-Sep-19 19:32N 35°53' W 013°12'10 9.7
2016-Sep-19 18:33N 35°44' W 013°16'20 9.8
2016-Sep-19 16:33N 35°25' W 013°22'2211.1
2016-Sep-19 14:33N 35°04' W 013°30'1510.2
2016-Sep-19 13:03N 34°49' W 013°35'510.2
2016-Sep-19 12:33N 34°44' W 013°36'30 9.8
2016-Sep-19 09:31N 34°16' W 013°46'19 9.8
2016-Sep-19 07:34N 33°57' W 013°53'4310.3
2016-Sep-19 03:23N 33°16' W 014°07'25310.0
2016-Sep-18 02:03N 29°12' W 015°29'7 9.3
2016-Sep-18 01:16N 29°05' W 015°31'7 9.1
2016-Sep-18 00:30N 28°58' W 015°33'17 8.9
2016-Sep-17 22:33N 28°44' W 015°44'9 9.3
2016-Sep-17 21:33N 28°38' W 015°52'9 9.2
2016-Sep-17 20:33N 28°32' W 015°60'10 8.1
2016-Sep-17 19:16N 28°29' W 016°11'12 2.2
2016-Sep-17 13:33N 28°22' W 015°60'38 8.6
2016-Sep-17 09:09N 27°47' W 016°17'  

Dump ship's entire track history